Terminal Aerodrome Forecast
Issued by NWS

Home | Current Version | Previous Version | Text Only | Print | Product List | Glossary On
Versions: 1 2 3 4 5 6 7 8 9 10 11 12 13 14 15
000
FTUS41 KLWX 282340
TAFMTN
TAF
KMTN 282340Z 2900/2924 VRB03KT P6SM VCTS BKN100CB
     FM290200 VRB03KT P6SM BKN100
     FM290400 VRB03KT P6SM SCT100
     FM291200 06007KT P6SM BKN100
     FM291800 12004KT P6SM BKN100
     FM292300 14004KT P6SM SCT090
      AMD NOT SKED 2902/2912=

USA.gov is the U.S. government's official web portal to all federal, state and local government web resources and services.